FW1850 Weather Reports


time (UTC)temp
C
wind
direction
speed
KPH
gust
KPH
rain 1hr
cm
rain 24hr
cm
rain mn
cm
humidity
%
barometer
mb
20211017162610 13 249 8.0 14.5 0.00 0.25 0.08 59 1012.2
20211017161609 12 282 11.3 20.9 0.00 0.25 0.08 59 1012.2
20211017160707 13 252 12.9 19.3 0.00 0.25 0.08 59 1012.3
20211017155708 13 229 9.7 17.7 0.00 0.25 0.08 62 1012.3
20211017154709 13 249 9.7 17.7 0.00 0.25 0.08 65 1012.3
20211017153708 13 257 8.0 11.3 0.03 0.28 0.08 65 1012.3
20211017153611 13 227 9.7 16.1 0.03 0.28 0.08 65 1012.2
20211017152708 13 246 11.3 19.3 0.03 0.28 0.08 65 1012.1
20211017151708 12 261 8.0 9.7 0.03 0.28 0.08 67 1012.1
20211017151609 12 266 12.9 22.5 0.03 0.28 0.08 68 1012.1
20211017150610 12 238 9.7 17.7 0.03 0.28 0.08 70 1012.1
20211017145608 12 231 9.7 16.1 0.03 0.28 0.08 71 1012.0
20211017145508 12 256 8.0 14.5 0.03 0.28 0.08 70 1012.1
20211017144510 12 277 8.0 14.5 0.03 0.28 0.08 73 1012.0
20211017143508 12 234 6.4 8.0 0.00 0.25 0.05 72 1012.0
20211017142509 11 247 9.7 12.9 0.00 0.25 0.05 74 1011.9
20211017141510 11 260 8.0 12.9 0.00 0.25 0.05 77 1011.7
20211017141408 11 237 11.3 16.1 0.00 0.25 0.05 78 1011.7
20211017141310 11 248 12.9 29.0 0.00 0.25 0.05 78 1011.7
20211017140309 11 244 4.8 9.7 0.00 0.25 0.05 81 1011.9
20211017140210 11 262 11.3 27.4 0.00 0.25 0.05 81 1011.9
20211017135308 11 249 4.8 11.3 0.00 0.25 0.05 86 1011.8
20211017134309 10 247 6.4 8.0 0.00 0.25 0.05 90 1011.6
20211017133310 10 235 4.8 8.0 0.00 0.25 0.05 94 1011.6
20211017132407 10 230 6.4 11.3 0.00 0.25 0.05 94 1011.6
20211017131507 10 227 4.8 6.4 0.00 0.25 0.05 95 1011.6
20211017130508 9 221 3.2 4.8 0.03 0.28 0.05 95 1011.4
20211017130408 9 221 4.8 8.0 0.03 0.28 0.05 94 1011.4
20211017125507 9 237 3.2 4.8 0.03 0.28 0.05 95 1011.4
20211017124508 9 225 4.8 9.7 0.05 0.30 0.05 94 1011.3
20211017123511 9 223 3.2 6.4 0.05 0.33 0.05 94 1011.1
20211017122509 9 227 4.8 11.3 0.05 0.36 0.05 93 1011.2
20211017121508 9 233 4.8 8.0 0.05 0.36 0.05 93 1011.1
20211017120508 9 222 8.0 11.3 0.03 0.36 0.03 92 1011.1
20211017115507 9 240 6.4 9.7 0.03 0.38 0.03 91 1011.0
20211017113509 10 218 8.0 14.5 0.00 0.36 0.00 88 1010.9
20211017112508 10 220 8.0 12.9 0.00 0.36 0.00 89 1010.9
20211017111607 10 208 6.4 11.3 0.00 0.36 0.00 88 1010.9
20211017110608 10 235 3.2 6.4 0.00 0.36 0.00 88 1010.8
20211017110507 10 222 4.8 9.7 0.00 0.36 0.00 88 1010.8
20211017105510 10 226 9.7 14.5 0.00 0.36 0.00 88 1010.8
20211017104509 10 222 4.8 9.7 0.00 0.36 0.00 90 1010.8
20211017103511 10 232 4.8 8.0 0.00 0.36 0.00 91 1010.9
20211017102607 10 225 3.2 6.4 0.00 0.36 0.00 90 1010.8
20211017101609 10 236 3.2 4.8 0.00 0.36 0.00 90 1010.8
20211017100608 10 215 3.2 4.8 0.00 0.36 0.00 90 1010.8
20211017095609 10 232 4.8 8.0 0.00 0.36 0.00 91 1010.8
20211017094608 10 223 3.2 6.4 0.00 0.36 0.00 91 1010.8
20211017094508 10 215 3.2 6.4 0.00 0.36 0.00 91 1010.8
20211017093510 9 206 3.2 4.8 0.00 0.36 0.00 90 1010.7
20211017092510 9 202 0.0 0.0 0.00 0.36 0.00 90 1010.6
20211017091508 9 240 0.0 3.2 0.00 0.36 0.00 88 1010.7
20211017091409 9 247 0.0 0.0 0.00 0.36 0.00 88 1010.7
20211017090409 10 247 0.0 1.6 0.00 0.36 0.00 88 1010.7
20211017085408 9 237 1.6 4.8 0.00 0.36 0.00 88 1010.6
20211017085308 9 211 3.2 6.4 0.00 0.36 0.00 88 1010.6
20211017084308 9 213 4.8 9.7 0.00 0.38 0.00 90 1010.6
20211017083407 10 225 3.2 6.4 0.00 0.41 0.00 90 1010.4
20211017082408 10 233 1.6 4.8 0.00 0.58 0.00 90 1010.7
20211017081409 10 225 4.8 6.4 0.00 0.64 0.00 90 1010.6
20211017080507 9 223 4.8 6.4 0.00 0.64 0.00 90 1010.7
20211017075509 9 228 4.8 6.4 0.00 0.66 0.00 89 1010.7
20211017075408 9 231 3.2 6.4 0.00 0.66 0.00 89 1010.7
20211017074507 9 224 8.0 12.9 0.00 0.69 0.00 90 1010.7
20211017073509 9 230 4.8 8.0 0.00 0.71 0.00 91 1010.8
20211017072508 9 224 3.2 6.4 0.00 0.71 0.00 90 1010.8
20211017071511 9 224 3.2 6.4 0.00 0.71 0.00 89 1010.8
20211017071408 9 222 4.8 6.4 0.00 0.71 0.00 89 1010.8
20211017070409 9 222 1.6 4.8 0.00 0.76 0.00 88 1010.8
20211017065508 9 225 3.2 4.8 0.00 0.76 0.00 89 1011.0
20211017064509 10 225 3.2 4.8 0.00 0.94 0.00 88 1011.1
20211017064407 10 219 3.2 4.8 0.00 0.99 0.00 88 1011.1
20211017063409 10 224 3.2 6.4 0.00 1.14 0.00 88 1011.0
20211017062507 10 228 3.2 4.8 0.00 1.14 0.00 87 1011.1
20211017061507 10 223 6.4 8.0 0.00 1.17 0.00 86 1011.2
20211017060508 10 225 3.2 6.4 0.00 1.19 0.00 87 1011.4
20211017060407 10 222 6.4 8.0 0.00 1.19 0.00 86 1011.4
20211017055410 10 216 3.2 6.4 0.00 1.19 0.00 86 1011.3
20211017054408 10 221 4.8 8.0 0.00 1.19 0.00 86 1011.3
20211017053407 11 215 4.8 8.0 0.00 1.19 0.00 85 1011.4
20211017053308 11 227 3.2 6.4 0.00 1.19 0.00 86 1011.5
20211017052310 11 230 4.8 8.0 0.00 1.19 0.00 86 1011.5
20211017051407 11 236 3.2 4.8 0.00 1.19 0.00 86 1011.7
20211017050408 11 211 3.2 6.4 0.00 1.19 0.00 86 1011.6
20211017045409 11 230 4.8 8.0 0.00 1.19 0.00 85 1011.5
20211017044508 11 215 3.2 6.4 0.00 1.19 0.00 86 1011.5
20211017044407 11 219 8.0 11.3 0.00 1.19 0.00 85 1011.5
20211017043408 11 224 8.0 14.5 0.00 1.19 0.00 86 1011.5
20211017042407 11 228 6.4 9.7 0.00 1.19 0.00 86 1011.4
20211017041409 11 217 3.2 6.4 0.00 1.19 0.00 84 1011.4
20211017040509 11 213 6.4 8.0 0.00 1.19 0.00 84 1011.3
20211017040407 11 220 4.8 8.0 0.00 1.19 0.00 84 1011.4
20211017035411 11 218 6.4 9.7 0.00 1.19 1.19 84 1011.5
20211017035308 11 216 6.4 8.0 0.00 1.19 1.19 84 1011.5
20211017034310 11 222 4.8 9.7 0.00 1.19 1.19 83 1011.5
20211017033409 11 224 6.4 9.7 0.00 1.19 1.19 82 1011.4
20211017032409 11 221 4.8 8.0 0.00 1.19 1.19 82 1011.4
20211017031508 11 232 6.4 9.7 0.00 1.19 1.19 83 1011.4
20211017030508 11 229 6.4 9.7 0.00 1.19 1.19 85 1011.5
20211017030410 11 228 4.8 9.7 0.00 1.19 1.19 85 1011.4
20211017025410 11 215 4.8 6.4 0.00 1.19 1.19 84 1011.6
20211017024411 11 221 3.2 4.8 0.00 1.19 1.19 83 1011.5
20211017023509 11 222 4.8 6.4 0.00 1.19 1.19 85 1011.4
20211017023410 11 223 4.8 8.0 0.00 1.19 1.19 85 1011.4
20211017022509 11 226 3.2 6.4 0.00 1.19 1.19 86 1011.4
20211017021510 11 228 4.8 8.0 0.00 1.24 1.19 88 1011.5
20211017020509 10 238 3.2 4.8 0.00 1.24 1.19 89 1011.4
20211017020410 10 236 3.2 6.4 0.00 1.24 1.19 89 1011.3
20211017015409 10 222 3.2 4.8 0.00 1.24 1.19 90 1011.4
20211017014410 11 234 3.2 4.8 0.00 1.50 1.19 90 1011.2
20211017013507 11 244 3.2 3.2 0.00 1.52 1.19 90 1011.2
20211017012509 10 216 4.8 6.4 0.00 1.52 1.19 92 1011.0
20211017011510 10 228 6.4 9.7 0.00 1.52 1.19 93 1011.0
20211017010610 10 224 4.8 11.3 0.03 1.52 1.19 93 1010.8
20211017005709 10 235 4.8 6.4 0.03 1.52 1.19 94 1010.7
20211017004709 10 224 3.2 6.4 0.03 1.52 1.19 93 1010.7
20211017003710 10 225 3.2 4.8 0.03 1.52 1.19 93 1010.7
20211017002809 10 227 3.2 4.8 0.03 1.52 1.19 93 1010.4
20211017002708 10 237 3.2 6.4 0.03 1.52 1.19 93 1010.4
20211017001709 10 231 3.2 6.4 0.03 1.52 1.19 92 1010.4
20211017000808 10 227 4.8 6.4 0.00 1.50 1.17 90 1010.3
20211016235811 10 218 4.8 8.0 0.00 1.55 1.17 89 1010.3
20211016235711 10 221 6.4 12.9 0.00 1.57 1.17 89 1010.4
20211016234709 11 233 6.4 11.3 0.00 2.03 1.17 89 1010.4
20211016233709 11 222 8.0 11.3 0.00 2.18 1.17 90 1010.0
20211016232708 11 217 3.2 4.8 0.03 2.18 1.17 91 1009.8
20211016231710 11 236 1.6 6.4 0.03 2.18 1.17 90 1009.8
20211016230710 11 224 6.4 11.3 0.10 2.21 1.17 90 1009.6
20211016225709 11 231 4.8 8.0 0.15 2.24 1.17 88 1009.3
20211016224709 11 225 3.2 6.4 0.15 2.24 1.17 89 1009.1
20211016223708 11 254 4.8 6.4 0.15 2.34 1.17 88 1009.1
20211016223608 11 263 4.8 8.0 0.15 2.36 1.17 88 1009.1
20211016222610 11 223 6.4 8.0 0.13 2.41 1.14 86 1009.0
20211016221610 12 246 6.4 11.3 0.13 2.41 1.12 82 1009.1
20211016220610 13 287 4.8 8.0 0.05 2.34 1.04 75 1009.0
20211016215610 13 258 1.6 4.8 0.00 2.29 1.02 73 1008.5
20211016214708 13 250 3.2 4.8 0.00 2.29 1.02 71 1008.5
20211016213709 14 234 6.4 9.7 0.00 2.29 1.02 71 1008.6
20211016212710 15 253 6.4 16.1 0.00 2.29 1.02 69 1008.5
20211016211711 15 245 8.0 19.3 0.00 2.29 1.02 70 1008.6
20211016210808 14 250 9.7 16.1 0.00 2.29 1.02 70 1008.5
20211016205809 15 258 8.0 12.9 0.00 2.29 1.02 71 1008.2
20211016204810 14 261 4.8 8.0 0.00 2.29 1.02 74 1008.2
20211016203825 14 261 8.0 16.1 0.00 2.29 1.02 77 1008.0
20211016202809 14 258 4.8 11.3 0.00 2.29 1.02 80 1008.1
20211016201810 13 259 6.4 11.3 0.00 2.29 1.02 81 1008.0
20211016200908 13 254 6.4 12.9 0.00 2.29 1.02 82 1007.8
20211016200008 13 263 6.4 9.7 0.00 2.29 1.02 84 1007.7
20211016195010 13 218 11.3 16.1 0.00 2.29 1.02 85 1007.5
20211016194010 13 234 9.7 17.7 0.00 2.29 1.02 86 1007.3
20211016193010 13 231 6.4 11.3 0.00 2.29 1.02 85 1007.2
20211016192907 13 233 9.7 17.7 0.00 2.29 1.02 86 1007.1
20211016191909 13 232 9.7 16.1 0.00 2.29 1.02 86 1007.0
20211016190907 13 221 4.8 8.0 0.00 2.29 1.02 88 1006.8
20211016190809 13 227 6.4 9.7 0.00 2.29 1.02 88 1006.8
20211016185908 13 233 4.8 8.0 0.00 2.29 1.02 88 1006.6
20211016184909 13 234 9.7 16.1 0.00 2.29 1.02 86 1006.7
20211016183910 13 241 6.4 9.7 0.00 2.29 1.02 85 1006.5
20211016182910 14 256 8.0 11.3 0.00 2.29 1.02 85 1006.3
20211016181909 14 234 8.0 12.9 0.00 2.29 1.02 85 1006.3
20211016181811 14 224 11.3 14.5 0.00 2.29 1.02 85 1006.1
20211016180810 13 250 11.3 17.7 0.00 2.29 1.02 86 1006.0
20211016175809 14 239 11.3 22.5 0.00 2.29 1.02 87 1006.0
20211016174809 14 224 14.5 22.5 0.00 2.29 1.02 87 1006.0
20211016173808 15 224 16.1 27.4 0.00 2.29 1.02 88 1005.9
20211016172811 15 254 9.7 19.3 0.00 2.29 1.02 88 1005.7
20211016171909 15 247 8.0 12.9 0.00 2.29 1.02 89 1005.3
20211016170909 15 255 8.0 16.1 0.00 2.29 1.02 90 1005.3
20211016170809 15 233 8.0 17.7 0.00 2.29 1.02 91 1005.3
20211016165809 15 237 11.3 19.3 0.00 2.29 1.02 94 1005.4
20211016164807 14 264 8.0 14.5 0.00 2.29 1.02 97 1005.1
20211016163809 13 215 9.7 14.5 0.03 2.29 1.02 97 1005.2